createdAt,value
2023-11-12T00:00:39.384Z,99138.31
2023-11-12T00:03:06.354Z,99132.38
2023-11-12T00:05:33.290Z,99133.97
2023-11-12T00:08:00.169Z,99130.41
2023-11-12T00:10:27.549Z,99136.34
2023-11-12T00:12:54.457Z,99128.44
2023-11-12T00:15:22.147Z,99132.78
2023-11-12T00:17:50.985Z,99135.56
2023-11-12T00:20:19.094Z,99133.97
2023-11-12T00:22:46.094Z,99139.53
2023-11-12T00:25:14.969Z,99137.50
2023-11-12T00:27:42.501Z,99141.25
2023-11-12T00:30:10.986Z,99139.06
2023-11-12T00:32:38.228Z,99140.66
2023-11-12T00:35:06.715Z,99142.81
2023-11-12T00:37:34.206Z,99144.59
2023-11-12T00:40:01.346Z,99138.41
2023-11-12T00:42:29.208Z,99143.34
2023-11-12T00:44:56.538Z,99140.97
2023-11-12T00:47:24.800Z,99149.69
2023-11-12T00:49:52.298Z,99158.75
2023-11-12T00:52:19.257Z,99157.19
2023-11-12T00:54:47.579Z,99152.41
2023-11-12T00:57:14.521Z,99151.38
2023-11-12T00:59:42.212Z,99164.66
2023-11-12T01:02:11.349Z,99166.66
2023-11-12T01:04:38.313Z,99159.91
2023-11-12T01:07:05.214Z,99162.66
2023-11-12T01:09:32.112Z,99171.19
2023-11-12T01:11:59.025Z,99169.94
2023-11-12T01:14:27.071Z,99166.75
2023-11-12T01:16:54.294Z,99166.19
2023-11-12T01:19:21.247Z,99165.38
2023-11-12T01:21:48.152Z,99171.69
2023-11-12T01:24:15.067Z,99162.38
2023-11-12T01:26:41.944Z,99168.25
2023-11-12T01:29:08.759Z,99174.19
2023-11-12T01:31:35.655Z,99167.66
2023-11-12T01:34:02.818Z,99168.47
2023-11-12T01:36:29.791Z,99166.06
2023-11-12T01:38:56.772Z,99168.66
2023-11-12T01:41:23.687Z,99167.22
2023-11-12T01:43:50.570Z,99170.78
2023-11-12T01:46:20.135Z,99159.25
2023-11-12T01:48:48.699Z,99151.72
2023-11-12T01:51:16.799Z,99163.38
2023-11-12T01:53:43.785Z,99167.72
2023-11-12T01:56:13.080Z,99167.91
2023-11-12T01:58:42.616Z,99172.63
2023-11-12T02:01:09.578Z,99171.84
2023-11-12T02:03:38.453Z,99178.16
2023-11-12T02:06:06.813Z,99173.19
2023-11-12T02:08:37.554Z,99168.22
2023-11-12T02:11:08.850Z,99167.44
2023-11-12T02:13:38.487Z,99153.47
2023-11-12T02:16:06.694Z,99164.41
2023-11-12T02:18:33.997Z,99164.59
2023-11-12T02:21:04.140Z,99169.75
2023-11-12T02:23:31.562Z,99163.81
2023-11-12T02:25:59.512Z,99172.53
2023-11-12T02:28:26.387Z,99169.75
2023-11-12T02:30:56.404Z,99170.38
2023-11-12T02:33:29.031Z,99171.34
2023-11-12T02:35:59.276Z,99178.09
2023-11-12T02:38:26.379Z,99177.09
2023-11-12T02:40:53.596Z,99182.25
2023-11-12T02:43:21.519Z,99186.44
2023-11-12T02:45:49.318Z,99186.44
2023-11-12T02:48:16.416Z,99195.13
2023-11-12T02:50:44.465Z,99190.78
2023-11-12T02:53:13.272Z,99184.03
2023-11-12T02:55:40.778Z,99185.19
2023-11-12T02:58:11.874Z,99191.66
2023-11-12T03:00:39.419Z,99190.72
2023-11-12T03:03:06.624Z,99187.50
2023-11-12T03:05:33.538Z,99182.34
2023-11-12T03:08:00.636Z,99184.34
2023-11-12T03:10:29.110Z,99182.75
2023-11-12T03:12:56.104Z,99195.00
2023-11-12T03:15:25.465Z,99180.53
2023-11-12T03:17:53.004Z,99188.25
2023-11-12T03:20:20.710Z,99190.84
2023-11-12T03:22:47.746Z,99193.78
2023-11-12T03:25:15.977Z,99189.94
2023-11-12T03:27:43.228Z,99191.53
2023-11-12T03:30:14.471Z,99191.34
2023-11-12T03:32:41.965Z,99199.72
2023-11-12T03:35:09.797Z,99193.13
2023-11-12T03:37:39.167Z,99198.28
2023-11-12T03:40:07.157Z,99204.41
2023-11-12T03:42:34.044Z,99200.84
2023-11-12T03:45:01.034Z,99197.84
2023-11-12T03:47:32.048Z,99199.03
2023-11-12T03:50:00.127Z,99198.44
2023-11-12T03:52:27.115Z,99198.56
2023-11-12T03:54:54.046Z,99205.34
2023-11-12T03:57:21.636Z,99203.72
2023-11-12T03:59:53.295Z,99204.38
2023-11-12T04:02:22.680Z,99193.19
2023-11-12T04:04:49.789Z,99210.94
2023-11-12T04:07:17.843Z,99209.72
2023-11-12T04:09:44.797Z,99209.16
2023-11-12T04:12:12.914Z,99211.50
2023-11-12T04:14:40.100Z,99210.94
2023-11-12T04:17:07.128Z,99210.31
2023-11-12T04:19:35.078Z,99198.72
2023-11-12T04:22:02.030Z,99214.66
2023-11-12T04:24:29.372Z,99216.78
2023-11-12T04:26:57.231Z,99219.34
2023-11-12T04:29:24.721Z,99219.72
2023-11-12T04:31:51.595Z,99227.59
2023-11-12T04:34:18.450Z,99225.22
2023-11-12T04:36:45.491Z,99220.78
2023-11-12T04:39:12.710Z,99221.50
2023-11-12T04:41:39.544Z,99230.19
2023-11-12T04:44:06.785Z,99230.97
2023-11-12T04:46:35.032Z,99234.53
2023-11-12T04:49:02.309Z,99242.00
2023-11-12T04:51:29.375Z,99241.22
2023-11-12T04:53:56.249Z,99243.16
2023-11-12T04:56:23.105Z,99243.16
2023-11-12T04:58:50.605Z,99239.00
2023-11-12T05:01:18.282Z,99240.31
2023-11-12T05:03:46.333Z,99246.25
2023-11-12T05:06:13.366Z,99244.81
2023-11-12T05:08:41.702Z,99248.41
2023-11-12T05:11:09.530Z,99248.59
2023-11-12T05:13:39.407Z,99260.66
2023-11-12T05:16:06.831Z,99251.16
2023-11-12T05:18:33.839Z,99251.34
2023-11-12T05:21:00.816Z,99258.06
2023-11-12T05:23:27.814Z,99255.13
2023-11-12T05:25:56.161Z,99258.47
2023-11-12T05:28:24.743Z,99258.47
2023-11-12T05:30:51.718Z,99254.94
2023-11-12T05:33:18.696Z,99251.56
2023-11-12T05:35:45.815Z,99248.41
2023-11-12T05:38:12.717Z,99251.78
2023-11-12T05:40:40.215Z,99250.59
2023-11-12T05:43:07.253Z,99245.44
2023-11-12T05:45:34.226Z,99257.94
2023-11-12T05:48:01.366Z,99257.00
2023-11-12T05:50:28.234Z,99258.25
2023-11-12T05:52:55.087Z,99258.84
2023-11-12T05:55:22.052Z,99253.19
2023-11-12T05:57:49.014Z,99254.22
2023-11-12T06:00:16.531Z,99260.47
2023-11-12T06:02:43.453Z,99255.38
2023-11-12T06:05:10.486Z,99254.66
2023-11-12T06:07:37.377Z,99259.06
2023-11-12T06:10:04.776Z,99261.91
2023-11-12T06:12:31.932Z,99271.31
2023-11-12T06:14:58.909Z,99275.91
2023-11-12T06:17:26.323Z,99280.16
2023-11-12T06:19:53.974Z,99289.09
2023-11-12T06:22:21.491Z,99289.78
2023-11-12T06:24:48.632Z,99293.59
2023-11-12T06:27:15.632Z,99295.34
2023-11-12T06:29:43.406Z,99300.03
2023-11-12T06:32:10.214Z,99293.22
2023-11-12T06:34:37.132Z,99291.00
2023-11-12T06:37:04.407Z,99294.16
2023-11-12T06:39:32.161Z,99289.72
2023-11-12T06:42:00.071Z,99297.19
2023-11-12T06:44:27.334Z,99299.47
2023-11-12T06:46:54.296Z,99304.69
2023-11-12T06:49:21.166Z,99300.94
2023-11-12T06:51:48.084Z,99313.50
2023-11-12T06:54:15.071Z,99317.50
2023-11-12T06:56:42.103Z,99319.66
2023-11-12T06:59:09.056Z,99321.81
2023-11-12T07:01:37.078Z,99322.94
2023-11-12T07:04:06.023Z,99324.13
2023-11-12T07:06:33.103Z,99320.47
2023-11-12T07:09:00.221Z,99328.00
2023-11-12T07:11:27.203Z,99328.31
2023-11-12T07:13:54.017Z,99322.19
2023-11-12T07:16:21.773Z,99321.69
2023-11-12T07:18:54.083Z,99316.38
2023-11-12T07:21:30.346Z,99322.34
2023-11-12T07:23:58.349Z,99321.31
2023-11-12T07:26:25.889Z,99329.72
2023-11-12T07:28:54.248Z,99324.03
2023-11-12T07:31:24.557Z,99319.09
2023-11-12T07:33:52.872Z,99316.22
2023-11-12T07:36:22.045Z,99316.03
2023-11-12T07:38:49.290Z,99315.03
2023-11-12T07:41:16.188Z,99311.09
2023-11-12T07:43:43.209Z,99313.69
2023-11-12T07:46:10.249Z,99316.22
2023-11-12T07:48:37.769Z,99319.34
2023-11-12T07:51:05.003Z,99319.03
2023-11-12T07:53:31.885Z,99317.78
2023-11-12T07:55:58.814Z,99324.06
2023-11-12T07:58:25.936Z,99322.09
2023-11-12T08:00:53.008Z,99317.81
2023-11-12T08:03:21.919Z,99324.94
2023-11-12T08:05:49.735Z,99325.75
2023-11-12T08:08:16.705Z,99328.66
2023-11-12T08:10:43.634Z,99323.72
2023-11-12T08:13:10.559Z,99328.88
2023-11-12T08:15:37.600Z,99331.94
2023-11-12T08:18:07.184Z,99335.53
2023-11-12T08:20:37.258Z,99330.88
2023-11-12T08:23:04.796Z,99332.94
2023-11-12T08:25:31.688Z,99327.47
2023-11-12T08:27:58.579Z,99328.34
2023-11-12T08:30:26.138Z,99328.88
2023-11-12T08:32:53.493Z,99331.19
2023-11-12T08:35:20.499Z,99344.06
2023-11-12T08:37:48.442Z,99340.91
2023-11-12T08:40:19.963Z,99352.22
2023-11-12T08:42:47.697Z,99347.41
2023-11-12T08:45:15.575Z,99353.91
2023-11-12T08:47:42.589Z,99350.44
2023-11-12T08:50:10.606Z,99351.34
2023-11-12T08:52:39.303Z,99350.78
2023-11-12T08:55:10.178Z,99352.41
2023-11-12T08:57:37.231Z,99357.63
2023-11-12T09:00:07.799Z,99368.41
2023-11-12T09:02:35.017Z,99373.66
2023-11-12T09:05:05.678Z,99370.88
2023-11-12T09:07:32.669Z,99370.50
2023-11-12T09:09:59.950Z,99366.75
2023-11-12T09:12:26.865Z,99374.69
2023-11-12T09:14:54.032Z,99360.97
2023-11-12T09:17:20.901Z,99359.44
2023-11-12T09:19:47.766Z,99364.03
2023-11-12T09:22:15.049Z,99368.78
2023-11-12T09:24:59.859Z,99378.72
2023-11-12T09:27:32.073Z,99374.16
2023-11-12T09:30:00.810Z,99368.38
2023-11-12T09:32:27.741Z,99372.50
2023-11-12T09:34:54.602Z,99376.06
2023-11-12T09:37:21.418Z,99381.59
2023-11-12T09:39:48.284Z,99378.56
2023-11-12T09:42:22.893Z,99375.97
2023-11-12T09:44:51.514Z,99380.47
2023-11-12T09:47:50.082Z,99377.69
2023-11-12T09:50:17.993Z,99379.19
2023-11-12T09:52:47.762Z,99379.16
2023-11-12T09:55:17.870Z,99378.81
2023-11-12T09:57:47.349Z,99372.63
2023-11-12T10:00:15.152Z,99367.34
2023-11-12T10:02:42.696Z,99369.78
2023-11-12T10:05:12.479Z,99365.50
2023-11-12T10:07:40.072Z,99364.66
2023-11-12T10:10:30.773Z,99361.41
2023-11-12T10:12:59.740Z,99359.31
2023-11-12T10:15:33.797Z,99370.38
2023-11-12T10:18:02.579Z,99365.75
2023-11-12T10:20:38.690Z,99362.50
2023-11-12T10:23:07.652Z,99352.59
2023-11-12T10:25:40.738Z,99359.94
2023-11-12T10:28:09.429Z,99358.41
2023-11-12T10:30:39.187Z,99360.75
2023-11-12T10:33:16.789Z,99360.75
2023-11-12T10:35:44.298Z,99350.22
2023-11-12T10:38:11.806Z,99351.13
2023-11-12T10:40:59.276Z,99361.75
2023-11-12T10:43:26.899Z,99351.31
2023-11-12T10:46:05.888Z,99357.94
2023-11-12T10:48:38.170Z,99355.13
2023-11-12T10:51:07.471Z,99353.97
2023-11-12T10:53:37.393Z,99358.38
2023-11-12T10:56:08.330Z,99360.91
2023-11-12T10:58:36.385Z,99356.88
2023-11-12T11:01:06.108Z,99355.13
2023-11-12T11:03:35.195Z,99361.63
2023-11-12T11:06:07.112Z,99356.47
2023-11-12T11:08:37.369Z,99363.59
2023-11-12T11:11:09.505Z,99359.03
2023-11-12T11:13:38.623Z,99349.03
2023-11-12T11:16:06.735Z,99358.56
2023-11-12T11:18:34.087Z,99359.16
2023-11-12T11:21:19.325Z,99359.81
2023-11-12T11:23:56.930Z,99362.00
2023-11-12T11:26:33.368Z,99350.78
2023-11-12T11:29:06.591Z,99357.81
2023-11-12T11:31:33.945Z,99357.78
2023-11-12T11:34:01.930Z,99363.59
2023-11-12T11:36:28.993Z,99355.25
2023-11-12T11:39:26.477Z,99356.63
2023-11-12T11:41:53.530Z,99353.22
2023-11-12T11:44:39.309Z,99361.06
2023-11-12T11:47:09.240Z,99352.44
2023-11-12T11:49:36.522Z,99351.63
2023-11-12T11:52:03.534Z,99352.97
2023-11-12T11:54:30.886Z,99350.63
2023-11-12T11:57:02.426Z,99351.44
2023-11-12T11:59:36.705Z,99349.44
2023-11-12T12:02:07.132Z,99350.34
2023-11-12T12:04:34.516Z,99344.88
2023-11-12T12:07:01.585Z,99346.41
2023-11-12T12:09:28.688Z,99346.78
2023-11-12T12:11:56.264Z,99353.56
2023-11-12T12:14:25.590Z,99349.16
2023-11-12T12:16:52.779Z,99341.59
2023-11-12T12:19:22.563Z,99340.41
2023-11-12T12:21:51.912Z,99331.69
2023-11-12T12:24:22.621Z,99336.53
2023-11-12T12:26:50.077Z,99335.94
2023-11-12T12:29:19.557Z,99328.16
2023-11-12T12:31:46.997Z,99326.00
2023-11-12T12:34:17.608Z,99319.97
2023-11-12T12:37:04.287Z,99331.44
2023-11-12T12:39:48.660Z,99329.25
2023-11-12T12:42:16.082Z,99327.59
2023-11-12T12:44:50.477Z,99322.56
2023-11-12T12:47:35.239Z,99327.00
2023-11-12T12:50:34.132Z,99335.34
2023-11-12T12:53:23.720Z,99333.78
2023-11-12T12:55:52.871Z,99332.09
2023-11-12T12:58:20.727Z,99330.03
2023-11-12T13:00:47.745Z,99332.22
2023-11-12T13:03:32.322Z,99337.56
2023-11-12T13:05:59.707Z,99333.53
2023-11-12T13:08:27.045Z,99330.56
2023-11-12T13:10:55.674Z,99326.16
2023-11-12T13:13:23.124Z,99338.34
2023-11-12T13:15:50.168Z,99334.97
2023-11-12T13:18:19.119Z,99341.38
2023-11-12T13:20:46.680Z,99345.19
2023-11-12T13:23:13.741Z,99348.56
2023-11-12T13:25:43.158Z,99341.00
2023-11-12T13:28:13.126Z,99343.97
2023-11-12T13:30:40.259Z,99341.97
2023-11-12T13:33:08.980Z,99346.19
2023-11-12T13:35:36.617Z,99352.22
2023-11-12T13:38:03.639Z,99349.50
2023-11-12T13:40:31.954Z,99344.72
2023-11-12T13:42:59.117Z,99341.75
2023-11-12T13:45:26.124Z,99347.75
2023-11-12T13:47:55.416Z,99350.19
2023-11-12T13:50:26.193Z,99352.81
2023-11-12T13:52:59.929Z,99352.03
2023-11-12T13:55:30.404Z,99351.44
2023-11-12T13:57:59.938Z,99344.66
2023-11-12T14:00:31.820Z,99356.28
2023-11-12T14:03:02.139Z,99348.72
2023-11-12T14:05:29.511Z,99350.69
2023-11-12T14:07:57.245Z,99348.31
2023-11-12T14:10:26.386Z,99354.28
2023-11-12T14:12:53.926Z,99349.53
2023-11-12T14:15:23.275Z,99352.13
2023-11-12T14:17:50.505Z,99348.78
2023-11-12T14:20:26.525Z,99346.03
2023-11-12T14:22:56.328Z,99348.28
2023-11-12T14:25:24.262Z,99355.25
2023-11-12T14:27:51.638Z,99357.63
2023-11-12T14:30:19.862Z,99360.69
2023-11-12T14:32:47.526Z,99359.47
2023-11-12T14:35:17.487Z,99358.13
2023-11-12T14:37:45.399Z,99363.34
2023-11-12T14:40:13.011Z,99356.97
2023-11-12T14:42:40.827Z,99365.94
2023-11-12T14:45:18.222Z,99362.56
2023-11-12T14:47:53.379Z,99367.19
2023-11-12T14:50:21.504Z,99371.34
2023-11-12T14:52:48.480Z,99368.97
2023-11-12T14:55:24.424Z,99373.38
2023-11-12T14:57:56.248Z,99376.34
2023-11-12T15:00:31.474Z,99358.63
2023-11-12T15:03:00.802Z,99368.41
2023-11-12T15:05:31.864Z,99380.16
2023-11-12T15:07:58.832Z,99372.59
2023-11-12T15:10:25.868Z,99377.81
2023-11-12T15:12:52.888Z,99375.06
2023-11-12T15:15:21.613Z,99373.88
2023-11-12T15:17:49.502Z,99373.09
2023-11-12T15:20:17.657Z,99380.06
2023-11-12T15:22:46.793Z,99377.88
2023-11-12T15:25:17.297Z,99380.13
2023-11-12T15:27:47.474Z,99371.53
2023-11-12T15:30:15.155Z,99382.31
2023-11-12T15:32:43.626Z,99376.75
2023-11-12T15:35:15.322Z,99377.94
2023-11-12T15:37:43.036Z,99370.38
2023-11-12T15:40:21.888Z,99378.75
2023-11-12T15:42:56.638Z,99384.94
2023-11-12T15:45:26.716Z,99380.94
2023-11-12T15:47:54.497Z,99383.13
2023-11-12T15:50:31.208Z,99385.53
2023-11-12T15:53:00.048Z,99380.16
2023-11-12T15:55:28.234Z,99388.50
2023-11-12T15:57:55.147Z,99390.72
2023-11-12T16:00:22.082Z,99387.16
2023-11-12T16:02:52.744Z,99392.28
2023-11-12T16:05:21.750Z,99390.31
2023-11-12T16:07:49.680Z,99389.50
2023-11-12T16:10:17.675Z,99388.31
2023-11-12T16:12:45.587Z,99391.25
2023-11-12T16:15:14.045Z,99383.13
2023-11-12T16:17:42.096Z,99390.28
2023-11-12T16:20:10.412Z,99388.69
2023-11-12T16:22:38.962Z,99390.47
2023-11-12T16:25:09.287Z,99380.72
2023-11-12T16:27:36.488Z,99392.03
2023-11-12T16:30:04.336Z,99390.84
2023-11-12T16:32:31.675Z,99397.00
2023-11-12T16:34:58.538Z,99393.81
2023-11-12T16:37:25.600Z,99393.00
2023-11-12T16:39:52.620Z,99394.97
2023-11-12T16:42:21.749Z,99391.59
2023-11-12T16:44:49.048Z,99394.75
2023-11-12T16:47:21.879Z,99398.75
2023-11-12T16:49:49.004Z,99395.91
2023-11-12T16:52:16.019Z,99406.03
2023-11-12T16:54:42.957Z,99397.69
2023-11-12T16:57:11.228Z,99404.84
2023-11-12T16:59:42.219Z,99408.97
2023-11-12T17:02:10.738Z,99415.94
2023-11-12T17:04:39.506Z,99421.03
2023-11-12T17:07:12.124Z,99418.59
2023-11-12T17:09:40.468Z,99428.13
2023-11-12T17:12:07.872Z,99427.06
2023-11-12T17:14:35.038Z,99433.63
2023-11-12T17:17:01.896Z,99438.34
2023-11-12T17:19:29.179Z,99439.13
2023-11-12T17:21:57.947Z,99432.09
2023-11-12T17:24:25.132Z,99442.56
2023-11-12T17:26:52.128Z,99445.94
2023-11-12T17:29:19.446Z,99441.84
2023-11-12T17:31:46.298Z,99443.56
2023-11-12T17:34:15.122Z,99441.50
2023-11-12T17:36:42.204Z,99438.69
2023-11-12T17:39:10.899Z,99436.09
2023-11-12T17:41:38.144Z,99442.84
2023-11-12T17:44:05.503Z,99438.69
2023-11-12T17:46:32.945Z,99438.88
2023-11-12T17:49:02.148Z,99430.69
2023-11-12T17:51:29.207Z,99433.47
2023-11-12T17:53:56.131Z,99443.78
2023-11-12T17:56:23.418Z,99433.63
2023-11-12T17:58:51.228Z,99439.78
2023-11-12T18:01:19.704Z,99440.19
2023-11-12T18:03:50.146Z,99439.53
2023-11-12T18:06:19.925Z,99436.09
2023-11-12T18:08:47.042Z,99440.81
2023-11-12T18:11:17.341Z,99445.19
2023-11-12T18:13:45.728Z,99449.09
2023-11-12T18:16:13.758Z,99447.50
2023-11-12T18:18:42.332Z,99443.16
2023-11-12T18:21:09.499Z,99444.56
2023-11-12T18:23:38.314Z,99453.63
2023-11-12T18:26:05.364Z,99451.44
2023-11-12T18:28:36.429Z,99452.38
2023-11-12T18:31:03.624Z,99454.53
2023-11-12T18:33:30.566Z,99453.13
2023-11-12T18:35:57.770Z,99439.25
2023-11-12T18:38:24.592Z,99451.72
2023-11-12T18:40:52.062Z,99460.56
2023-11-12T18:43:19.242Z,99451.34
2023-11-12T18:45:46.129Z,99463.38
2023-11-12T18:48:13.777Z,99467.50
2023-11-12T18:50:41.130Z,99465.31
2023-11-12T18:53:08.464Z,99465.50
2023-11-12T18:55:35.463Z,99465.88
2023-11-12T18:58:02.438Z,99459.44
2023-11-12T19:00:29.343Z,99465.00
2023-11-12T19:02:56.313Z,99465.34
2023-11-12T19:05:23.470Z,99464.81
2023-11-12T19:07:50.520Z,99470.66
2023-11-12T19:10:23.518Z,99469.44
2023-11-12T19:12:50.909Z,99468.63
2023-11-12T19:15:18.020Z,99470.59
2023-11-12T19:17:45.910Z,99467.22
2023-11-12T19:20:14.636Z,99478.66
2023-11-12T19:22:42.703Z,99469.16
2023-11-12T19:25:11.625Z,99475.63
2023-11-12T19:27:40.098Z,99484.97
2023-11-12T19:30:13.994Z,99487.81
2023-11-12T19:32:43.400Z,99472.00
2023-11-12T19:35:10.553Z,99473.84
2023-11-12T19:37:39.234Z,99471.94
2023-11-12T19:40:09.820Z,99471.94
2023-11-12T19:42:37.238Z,99477.09
2023-11-12T19:45:06.713Z,99492.78
2023-11-12T19:47:34.446Z,99482.41
2023-11-12T19:50:01.742Z,99483.19
2023-11-12T19:52:31.340Z,99487.78
2023-11-12T19:54:58.285Z,99484.53
2023-11-12T19:57:27.672Z,99487.91
2023-11-12T19:59:56.733Z,99487.53
2023-11-12T20:02:23.655Z,99481.41
2023-11-12T20:04:51.828Z,99490.91
2023-11-12T20:07:18.653Z,99483.44
2023-11-12T20:09:46.767Z,99499.69
2023-11-12T20:12:13.773Z,99503.34
2023-11-12T20:14:40.698Z,99501.34
2023-11-12T20:17:11.813Z,99503.34
2023-11-12T20:19:41.171Z,99501.72
2023-11-12T20:22:08.508Z,99506.50
2023-11-12T20:24:38.542Z,99515.31
2023-11-12T20:27:10.318Z,99512.28
2023-11-12T20:29:37.675Z,99513.63
2023-11-12T20:32:04.862Z,99512.59
2023-11-12T20:34:32.388Z,99506.72
2023-11-12T20:37:00.423Z,99514.63
2023-11-12T20:39:27.504Z,99502.66
2023-11-12T20:41:56.332Z,99506.56
2023-11-12T20:44:23.349Z,99504.09
2023-11-12T20:46:50.255Z,99510.91
2023-11-12T20:49:18.667Z,99513.72
2023-11-12T20:51:47.304Z,99511.50
2023-11-12T20:54:16.661Z,99509.47
2023-11-12T20:56:43.714Z,99509.38
2023-11-12T20:59:11.293Z,99510.03
2023-11-12T21:01:39.057Z,99515.31
2023-11-12T21:04:11.067Z,99510.66
2023-11-12T21:06:40.364Z,99515.88
2023-11-12T21:09:09.908Z,99515.41
2023-11-12T21:11:41.083Z,99516.16
2023-11-12T21:14:12.712Z,99512.00
2023-11-12T21:16:41.201Z,99506.59
2023-11-12T21:19:10.030Z,99506.63
2023-11-12T21:21:39.108Z,99503.00
2023-11-12T21:24:07.064Z,99507.50
2023-11-12T21:26:37.310Z,99510.72
2023-11-12T21:29:04.133Z,99520.00
2023-11-12T21:31:31.087Z,99509.59
2023-11-12T21:33:58.167Z,99518.63
2023-11-12T21:36:25.028Z,99517.38
2023-11-12T21:38:53.746Z,99511.31
2023-11-12T21:41:20.754Z,99513.41
2023-11-12T21:43:47.661Z,99510.53
2023-11-12T21:46:17.049Z,99510.28
2023-11-12T21:48:44.279Z,99511.88
2023-11-12T21:51:11.305Z,99517.31
2023-11-12T21:53:38.892Z,99514.47
2023-11-12T21:56:08.728Z,99511.25
2023-11-12T21:58:36.514Z,99518.00
2023-11-12T22:01:03.579Z,99520.94
2023-11-12T22:03:30.944Z,99517.19
2023-11-12T22:05:58.003Z,99511.63
2023-11-12T22:08:24.881Z,99511.13
2023-11-12T22:10:51.802Z,99505.19
2023-11-12T22:13:21.559Z,99506.66
2023-11-12T22:15:49.205Z,99503.00
2023-11-12T22:18:16.358Z,99503.34
2023-11-12T22:20:43.337Z,99507.19
2023-11-12T22:23:12.233Z,99500.78
2023-11-12T22:25:40.270Z,99509.44
2023-11-12T22:28:07.630Z,99500.47
2023-11-12T22:30:34.622Z,99497.91
2023-11-12T22:33:01.648Z,99497.56
2023-11-12T22:35:28.590Z,99499.22
2023-11-12T22:37:55.524Z,99501.44
2023-11-12T22:40:24.620Z,99513.19
2023-11-12T22:42:53.237Z,99513.34
2023-11-12T22:45:20.799Z,99511.09
2023-11-12T22:47:48.358Z,99513.03
2023-11-12T22:50:18.509Z,99513.72
2023-11-12T22:52:45.554Z,99511.44
2023-11-12T22:55:13.212Z,99524.28
2023-11-12T22:57:41.230Z,99520.47
2023-11-12T23:00:36.891Z,99526.22
2023-11-12T23:03:10.247Z,99524.94
2023-11-12T23:05:37.607Z,99528.16
2023-11-12T23:08:07.530Z,99534.25
2023-11-12T23:10:35.312Z,99536.03
2023-11-12T23:13:02.819Z,99528.66
2023-11-12T23:15:29.895Z,99528.97
2023-11-12T23:17:59.792Z,99538.41
2023-11-12T23:20:26.743Z,99546.94
2023-11-12T23:22:53.682Z,99553.34
2023-11-12T23:25:20.761Z,99555.28
2023-11-12T23:27:47.903Z,99557.69
2023-11-12T23:30:15.341Z,99557.97
2023-11-12T23:32:45.826Z,99557.38
2023-11-12T23:35:12.737Z,99554.31
2023-11-12T23:37:39.796Z,99554.00
2023-11-12T23:40:08.439Z,99543.88
2023-11-12T23:42:37.610Z,99552.88
2023-11-12T23:45:08.843Z,99556.41
2023-11-12T23:47:36.862Z,99554.16
2023-11-12T23:50:05.105Z,99543.59
2023-11-12T23:52:34.079Z,99545.84
2023-11-12T23:55:01.006Z,99534.59
2023-11-12T23:57:28.305Z,99529.16
2023-11-12T23:59:55.175Z,99536.22
